sensor_id;sensor_type;location;lat;lon;timestamp;pressure;altitude;pressure_sealevel;temperature;humidity
15382;BME280;7789;51.364;12.358;2023-02-23T00:00:21;99959.59;;;9.88;100.00
15382;BME280;7789;51.364;12.358;2023-02-23T00:05:35;99954.38;;;9.88;100.00
15382;BME280;7789;51.364;12.358;2023-02-23T00:10:38;99948.31;;;9.88;100.00
15382;BME280;7789;51.364;12.358;2023-02-23T00:15:41;99953.53;;;9.88;100.00
15382;BME280;7789;51.364;12.358;2023-02-23T00:20:53;99954.22;;;9.90;100.00
15382;BME280;7789;51.364;12.358;2023-02-23T00:25:58;99949.13;;;9.88;100.00
15382;BME280;7789;51.364;12.358;2023-02-23T00:31:01;99951.59;;;9.90;100.00
15382;BME280;7789;51.364;12.358;2023-02-23T00:36:09;99949.84;;;9.90;100.00
15382;BME280;7789;51.364;12.358;2023-02-23T00:41:14;99953.63;;;9.86;100.00
15382;BME280;7789;51.364;12.358;2023-02-23T00:46:22;99953.91;;;9.83;100.00
15382;BME280;7789;51.364;12.358;2023-02-23T00:51:29;99953.63;;;9.86;100.00
15382;BME280;7789;51.364;12.358;2023-02-23T00:56:33;99949.25;;;9.87;100.00
15382;BME280;7789;51.364;12.358;2023-02-23T01:01:37;99955.31;;;9.87;100.00
15382;BME280;7789;51.364;12.358;2023-02-23T01:06:44;99957.50;;;9.92;100.00
15382;BME280;7789;51.364;12.358;2023-02-23T01:11:47;99957.25;;;9.95;100.00
15382;BME280;7789;51.364;12.358;2023-02-23T01:16:50;99957.25;;;9.95;100.00
15382;BME280;7789;51.364;12.358;2023-02-23T01:21:55;99963.44;;;9.94;100.00
15382;BME280;7789;51.364;12.358;2023-02-23T01:26:58;99959.84;;;9.95;100.00
15382;BME280;7789;51.364;12.358;2023-02-23T01:32:01;99946.69;;;9.96;100.00
15382;BME280;7789;51.364;12.358;2023-02-23T01:37:07;99940.50;;;9.97;100.00
15382;BME280;7789;51.364;12.358;2023-02-23T01:42:12;99937.88;;;9.97;100.00
15382;BME280;7789;51.364;12.358;2023-02-23T01:47:15;99935.28;;;9.97;100.00
15382;BME280;7789;51.364;12.358;2023-02-23T01:52:22;99931.72;;;9.98;100.00
15382;BME280;7789;51.364;12.358;2023-02-23T01:57:25;99927.44;;;9.97;100.00
15382;BME280;7789;51.364;12.358;2023-02-23T02:02:29;99923.88;;;9.98;100.00
15382;BME280;7789;51.364;12.358;2023-02-23T02:07:41;99915.09;;;9.99;100.00
15382;BME280;7789;51.364;12.358;2023-02-23T02:12:51;99917.00;;;9.97;100.00
15382;BME280;7789;51.364;12.358;2023-02-23T02:18:03;99913.97;;;9.92;100.00
15382;BME280;7789;51.364;12.358;2023-02-23T02:23:41;99907.22;;;9.90;100.00
15382;BME280;7789;51.364;12.358;2023-02-23T02:35:07;99899.25;;;9.82;100.00
15382;BME280;7789;51.364;12.358;2023-02-23T02:40:20;99898.56;;;9.80;100.00
15382;BME280;7789;51.364;12.358;2023-02-23T02:45:33;99899.94;;;9.84;100.00
15382;BME280;7789;51.364;12.358;2023-02-23T02:50:42;99891.13;;;9.85;100.00
15382;BME280;7789;51.364;12.358;2023-02-23T02:55:52;99892.66;;;9.87;100.00
15382;BME280;7789;51.364;12.358;2023-02-23T03:01:06;99892.78;;;9.86;100.00
15382;BME280;7789;51.364;12.358;2023-02-23T03:06:31;99890.88;;;9.88;100.00
15382;BME280;7789;51.364;12.358;2023-02-23T03:12:06;99888.38;;;9.86;100.00
15382;BME280;7789;51.364;12.358;2023-02-23T03:17:32;99892.66;;;9.87;100.00
15382;BME280;7789;51.364;12.358;2023-02-23T03:22:57;99887.28;;;9.89;100.00
15382;BME280;7789;51.364;12.358;2023-02-23T03:28:24;99896.66;;;9.91;100.00
15382;BME280;7789;51.364;12.358;2023-02-23T03:33:53;99897.91;;;9.97;100.00
15382;BME280;7789;51.364;12.358;2023-02-23T03:39:20;99899.28;;;10.01;100.00
15382;BME280;7789;51.364;12.358;2023-02-23T03:44:46;99900.72;;;10.05;100.00
15382;BME280;7789;51.364;12.358;2023-02-23T03:50:11;99899.34;;;10.10;100.00
15382;BME280;7789;51.364;12.358;2023-02-23T03:55:36;99904.03;;;10.16;100.00
15382;BME280;7789;51.364;12.358;2023-02-23T04:01:02;99915.16;;;10.18;100.00
15382;BME280;7789;51.364;12.358;2023-02-23T04:06:28;99919.88;;;10.24;100.00
15382;BME280;7789;51.364;12.358;2023-02-23T04:11:53;99913.69;;;10.25;100.00
15382;BME280;7789;51.364;12.358;2023-02-23T04:17:18;99915.06;;;10.29;100.00
15382;BME280;7789;51.364;12.358;2023-02-23T04:22:23;99913.13;;;10.31;100.00
15382;BME280;7789;51.364;12.358;2023-02-23T04:27:27;99910.25;;;10.34;100.00
15382;BME280;7789;51.364;12.358;2023-02-23T04:32:35;99918.66;;;10.38;100.00
15382;BME280;7789;51.364;12.358;2023-02-23T04:37:39;99915.19;;;10.37;100.00
15382;BME280;7789;51.364;12.358;2023-02-23T04:42:42;99913.31;;;10.39;100.00
15382;BME280;7789;51.364;12.358;2023-02-23T04:47:47;99916.59;;;10.41;100.00
15382;BME280;7789;51.364;12.358;2023-02-23T04:52:50;99906.97;;;10.42;100.00
15382;BME280;7789;51.364;12.358;2023-02-23T04:57:57;99905.31;;;10.41;100.00
15382;BME280;7789;51.364;12.358;2023-02-23T05:03:02;99905.19;;;10.42;100.00
15382;BME280;7789;51.364;12.358;2023-02-23T05:08:06;99908.59;;;10.43;100.00
15382;BME280;7789;51.364;12.358;2023-02-23T05:13:09;99915.47;;;10.44;100.00
15382;BME280;7789;51.364;12.358;2023-02-23T05:18:14;99902.56;;;10.42;100.00
15382;BME280;7789;51.364;12.358;2023-02-23T05:23:17;99903.66;;;10.40;100.00
15382;BME280;7789;51.364;12.358;2023-02-23T05:28:22;99915.34;;;10.36;100.00
15382;BME280;7789;51.364;12.358;2023-02-23T05:33:27;99900.91;;;10.32;100.00
15382;BME280;7789;51.364;12.358;2023-02-23T05:38:30;99903.78;;;10.29;100.00
15382;BME280;7789;51.364;12.358;2023-02-23T05:43:33;99909.00;;;10.29;100.00
15382;BME280;7789;51.364;12.358;2023-02-23T05:48:38;99906.66;;;10.26;100.00
15382;BME280;7789;51.364;12.358;2023-02-23T05:53:41;99910.63;;;10.20;100.00
15382;BME280;7789;51.364;12.358;2023-02-23T05:58:45;99909.94;;;10.18;100.00
15382;BME280;7789;51.364;12.358;2023-02-23T06:03:49;99914.63;;;10.15;100.00
15382;BME280;7789;51.364;12.358;2023-02-23T06:08:53;99921.88;;;10.11;100.00
15382;BME280;7789;51.364;12.358;2023-02-23T06:13:57;99927.25;;;10.10;100.00
15382;BME280;7789;51.364;12.358;2023-02-23T06:19:02;99928.06;;;10.10;100.00
15382;BME280;7789;51.364;12.358;2023-02-23T06:24:05;99931.66;;;10.09;100.00
15382;BME280;7789;51.364;12.358;2023-02-23T06:29:08;99930.69;;;10.10;100.00
15382;BME280;7789;51.364;12.358;2023-02-23T06:34:13;99934.00;;;10.12;100.00
15382;BME280;7789;51.364;12.358;2023-02-23T06:39:17;99939.91;;;10.14;100.00
15382;BME280;7789;51.364;12.358;2023-02-23T06:44:20;99944.84;;;10.17;100.00
15382;BME280;7789;51.364;12.358;2023-02-23T06:49:25;99940.19;;;10.21;100.00
15382;BME280;7789;51.364;12.358;2023-02-23T06:54:28;99949.28;;;10.26;100.00
15382;BME280;7789;51.364;12.358;2023-02-23T06:59:31;99953.16;;;10.32;100.00
15382;BME280;7789;51.364;12.358;2023-02-23T07:04:36;99955.34;;;10.36;100.00
15382;BME280;7789;51.364;12.358;2023-02-23T07:09:39;99959.09;;;10.43;100.00
15382;BME280;7789;51.364;12.358;2023-02-23T07:14:43;99962.81;;;10.50;100.00
15382;BME280;7789;51.364;12.358;2023-02-23T07:19:48;99961.16;;;10.59;100.00
15382;BME280;7789;51.364;12.358;2023-02-23T07:24:51;99970.25;;;10.64;100.00
15382;BME280;7789;51.364;12.358;2023-02-23T07:29:54;99967.94;;;10.71;100.00
15382;BME280;7789;51.364;12.358;2023-02-23T07:34:59;99973.28;;;10.79;100.00
15382;BME280;7789;51.364;12.358;2023-02-23T07:40:02;99977.84;;;10.86;100.00
15382;BME280;7789;51.364;12.358;2023-02-23T07:45:07;99976.34;;;10.93;100.00
15382;BME280;7789;51.364;12.358;2023-02-23T07:50:12;99992.84;;;11.03;100.00
15382;BME280;7789;51.364;12.358;2023-02-23T07:55:15;99988.75;;;11.10;100.00
15382;BME280;7789;51.364;12.358;2023-02-23T08:00:18;99983.34;;;11.21;100.00
15382;BME280;7789;51.364;12.358;2023-02-23T08:05:23;99986.13;;;11.29;100.00
15382;BME280;7789;51.364;12.358;2023-02-23T08:10:27;99992.16;;;11.39;100.00
15382;BME280;7789;51.364;12.358;2023-02-23T08:15:30;99988.69;;;11.48;100.00
15382;BME280;7789;51.364;12.358;2023-02-23T08:20:35;99983.19;;;11.60;100.00
15382;BME280;7789;51.364;12.358;2023-02-23T08:25:38;99990.06;;;11.71;100.00
15382;BME280;7789;51.364;12.358;2023-02-23T08:30:41;99995.94;;;11.82;100.00
15382;BME280;7789;51.364;12.358;2023-02-23T08:35:46;100000.22;;;11.93;100.00
15382;BME280;7789;51.364;12.358;2023-02-23T08:40:49;99988.97;;;12.10;100.00
15382;BME280;7789;51.364;12.358;2023-02-23T08:45:52;99984.44;;;12.29;100.00
15382;BME280;7789;51.364;12.358;2023-02-23T08:50:57;99993.34;;;12.46;100.00
15382;BME280;7789;51.364;12.358;2023-02-23T08:56:02;99986.09;;;12.57;100.00
15382;BME280;7789;51.364;12.358;2023-02-23T09:01:12;99983.28;;;12.68;100.00
15382;BME280;7789;51.364;12.358;2023-02-23T09:06:22;99995.41;;;12.87;100.00
15382;BME280;7789;51.364;12.358;2023-02-23T09:11:26;99985.34;;;13.09;100.00
15382;BME280;7789;51.364;12.358;2023-02-23T09:16:29;99997.31;;;13.29;100.00
15382;BME280;7789;51.364;12.358;2023-02-23T09:21:34;100001.72;;;13.63;100.00
15382;BME280;7789;51.364;12.358;2023-02-23T09:26:37;100004.13;;;14.08;100.00
15382;BME280;7789;51.364;12.358;2023-02-23T09:31:46;99995.91;;;14.44;100.00
15382;BME280;7789;51.364;12.358;2023-02-23T09:36:53;99988.41;;;14.57;96.97
15382;BME280;7789;51.364;12.358;2023-02-23T09:42:15;99996.47;;;14.72;94.25
15382;BME280;7789;51.364;12.358;2023-02-23T09:47:27;99997.22;;;14.89;93.03
15382;BME280;7789;51.364;12.358;2023-02-23T09:52:39;99997.31;;;14.80;92.81
15382;BME280;7789;51.364;12.358;2023-02-23T09:57:44;100012.81;;;14.83;91.83
15382;BME280;7789;51.364;12.358;2023-02-23T10:03:10;100010.66;;;14.86;91.06
15382;BME280;7789;51.364;12.358;2023-02-23T10:08:29;100004.13;;;14.98;90.36
15382;BME280;7789;51.364;12.358;2023-02-23T10:13:45;100006.28;;;15.03;89.63
15382;BME280;7789;51.364;12.358;2023-02-23T10:18:55;100011.72;;;15.09;89.04
15382;BME280;7789;51.364;12.358;2023-02-23T10:24:08;100014.19;;;15.19;89.36
15382;BME280;7789;51.364;12.358;2023-02-23T10:29:22;100019.84;;;15.40;88.09
15382;BME280;7789;51.364;12.358;2023-02-23T10:34:29;100013.56;;;15.49;88.45
15382;BME280;7789;51.364;12.358;2023-02-23T10:39:34;100017.00;;;15.57;86.97
15382;BME280;7789;51.364;12.358;2023-02-23T10:44:37;100018.81;;;15.73;87.07
15382;BME280;7789;51.364;12.358;2023-02-23T10:49:44;100011.25;;;15.70;85.50
15382;BME280;7789;51.364;12.358;2023-02-23T10:54:50;100004.66;;;15.66;85.43
15382;BME280;7789;51.364;12.358;2023-02-23T11:00:10;100008.75;;;15.84;84.59
15382;BME280;7789;51.364;12.358;2023-02-23T11:05:36;100005.75;;;16.03;85.04
15382;BME280;7789;51.364;12.358;2023-02-23T11:10:56;100001.78;;;16.07;83.28
15382;BME280;7789;51.364;12.358;2023-02-23T11:16:02;100001.63;;;16.09;83.58
15382;BME280;7789;51.364;12.358;2023-02-23T11:21:17;99989.25;;;16.09;80.96
15382;BME280;7789;51.364;12.358;2023-02-23T11:26:28;99984.63;;;16.11;80.20
15382;BME280;7789;51.364;12.358;2023-02-23T11:31:35;99976.97;;;16.24;79.50
15382;BME280;7789;51.364;12.358;2023-02-23T11:36:40;99976.13;;;16.32;79.68
15382;BME280;7789;51.364;12.358;2023-02-23T11:41:45;99970.88;;;16.40;79.40
15382;BME280;7789;51.364;12.358;2023-02-23T11:46:49;99970.84;;;16.32;78.28
15382;BME280;7789;51.364;12.358;2023-02-23T11:51:53;99965.75;;;16.38;78.51
15382;BME280;7789;51.364;12.358;2023-02-23T11:56:58;99955.03;;;16.40;77.95
15382;BME280;7789;51.364;12.358;2023-02-23T12:02:15;99953.19;;;16.40;76.79
15382;BME280;7789;51.364;12.358;2023-02-23T12:07:35;99954.38;;;16.38;76.77
15382;BME280;7789;51.364;12.358;2023-02-23T12:12:50;99958.97;;;16.44;76.67
15382;BME280;7789;51.364;12.358;2023-02-23T12:17:59;99952.53;;;16.46;76.89
15382;BME280;7789;51.364;12.358;2023-02-23T12:23:08;99949.41;;;16.43;75.91
15382;BME280;7789;51.364;12.358;2023-02-23T12:28:21;99948.56;;;16.42;76.29
15382;BME280;7789;51.364;12.358;2023-02-23T12:33:35;99941.97;;;16.46;77.15
15382;BME280;7789;51.364;12.358;2023-02-23T12:38:48;99936.50;;;16.48;75.99
15382;BME280;7789;51.364;12.358;2023-02-23T12:43:59;99931.06;;;16.49;75.41
15382;BME280;7789;51.364;12.358;2023-02-23T12:49:10;99942.97;;;16.45;77.07
15382;BME280;7789;51.364;12.358;2023-02-23T12:54:26;99935.91;;;16.38;76.04
15382;BME280;7789;51.364;12.358;2023-02-23T12:59:49;99937.91;;;16.36;75.82
15382;BME280;7789;51.364;12.358;2023-02-23T13:05:12;99934.56;;;16.34;75.04
15382;BME280;7789;51.364;12.358;2023-02-23T13:10:35;99941.03;;;16.31;76.18
15382;BME280;7789;51.364;12.358;2023-02-23T13:15:55;99930.03;;;16.20;75.76
15382;BME280;7789;51.364;12.358;2023-02-23T13:21:07;99934.19;;;16.14;75.80
15382;BME280;7789;51.364;12.358;2023-02-23T13:26:19;99926.41;;;16.13;77.73
15382;BME280;7789;51.364;12.358;2023-02-23T13:31:30;99926.28;;;16.06;77.47
15382;BME280;7789;51.364;12.358;2023-02-23T13:36:35;99923.19;;;15.95;78.50
15382;BME280;7789;51.364;12.358;2023-02-23T13:41:40;99919.78;;;15.86;79.34
15382;BME280;7789;51.364;12.358;2023-02-23T13:46:52;99914.00;;;15.83;80.30
15382;BME280;7789;51.364;12.358;2023-02-23T13:52:07;99914.69;;;15.77;80.03
15382;BME280;7789;51.364;12.358;2023-02-23T13:57:13;99917.53;;;15.75;80.62
15382;BME280;7789;51.364;12.358;2023-02-23T14:02:29;99917.03;;;15.72;81.47
15382;BME280;7789;51.364;12.358;2023-02-23T14:07:38;99914.72;;;15.69;81.21
15382;BME280;7789;51.364;12.358;2023-02-23T14:13:03;99912.25;;;15.67;81.26
15382;BME280;7789;51.364;12.358;2023-02-23T14:18:32;99921.31;;;15.65;81.94
15382;BME280;7789;51.364;12.358;2023-02-23T14:23:50;99919.84;;;15.62;82.09
15382;BME280;7789;51.364;12.358;2023-02-23T14:29:22;99910.94;;;15.55;81.89
15382;BME280;7789;51.364;12.358;2023-02-23T14:34:52;99917.41;;;15.53;81.83
15382;BME280;7789;51.364;12.358;2023-02-23T14:40:30;99916.06;;;15.49;81.47
15382;BME280;7789;51.364;12.358;2023-02-23T14:45:54;99911.66;;;15.41;82.43
15382;BME280;7789;51.364;12.358;2023-02-23T14:51:20;99907.53;;;15.39;82.77
15382;BME280;7789;51.364;12.358;2023-02-23T14:56:27;99908.88;;;15.35;82.54
15382;BME280;7789;51.364;12.358;2023-02-23T15:01:44;99902.56;;;15.28;83.79
15382;BME280;7789;51.364;12.358;2023-02-23T15:06:52;99894.69;;;15.20;84.49
15382;BME280;7789;51.364;12.358;2023-02-23T15:12:07;99886.31;;;15.08;85.46
15382;BME280;7789;51.364;12.358;2023-02-23T15:17:17;99903.41;;;15.04;86.24
15382;BME280;7789;51.364;12.358;2023-02-23T15:22:27;99898.31;;;14.95;86.98
15382;BME280;7789;51.364;12.358;2023-02-23T15:27:36;99899.31;;;14.86;87.48
15382;BME280;7789;51.364;12.358;2023-02-23T15:32:43;99897.66;;;14.77;89.29
15382;BME280;7789;51.364;12.358;2023-02-23T15:37:48;99897.19;;;14.74;89.90
15382;BME280;7789;51.364;12.358;2023-02-23T15:43:12;99906.34;;;14.54;90.53
15382;BME280;7789;51.364;12.358;2023-02-23T15:48:17;99894.31;;;14.35;91.56
15382;BME280;7789;51.364;12.358;2023-02-23T15:53:28;99896.81;;;14.11;93.49
15382;BME280;7789;51.364;12.358;2023-02-23T15:58:41;99905.28;;;13.89;95.28
15382;BME280;7789;51.364;12.358;2023-02-23T16:04:00;99893.38;;;13.69;96.13
15382;BME280;7789;51.364;12.358;2023-02-23T16:09:24;99898.75;;;13.60;98.24
15382;BME280;7789;51.364;12.358;2023-02-23T16:14:31;99909.16;;;13.44;99.11
15382;BME280;7789;51.364;12.358;2023-02-23T16:19:36;99905.66;;;13.35;100.00
15382;BME280;7789;51.364;12.358;2023-02-23T16:24:44;99898.22;;;13.31;100.00
15382;BME280;7789;51.364;12.358;2023-02-23T16:29:55;99897.22;;;13.24;100.00
15382;BME280;7789;51.364;12.358;2023-02-23T16:35:08;99904.78;;;13.09;100.00
15382;BME280;7789;51.364;12.358;2023-02-23T16:40:13;99895.22;;;13.00;100.00
15382;BME280;7789;51.364;12.358;2023-02-23T16:45:20;99904.13;;;12.90;100.00
15382;BME280;7789;51.364;12.358;2023-02-23T16:50:24;99904.56;;;12.86;100.00
15382;BME280;7789;51.364;12.358;2023-02-23T16:55:35;99899.78;;;12.81;100.00
15382;BME280;7789;51.364;12.358;2023-02-23T17:00:40;99904.59;;;12.68;100.00
15382;BME280;7789;51.364;12.358;2023-02-23T17:05:50;99913.72;;;12.64;100.00
15382;BME280;7789;51.364;12.358;2023-02-23T17:11:00;99907.56;;;12.56;100.00
15382;BME280;7789;51.364;12.358;2023-02-23T17:16:05;99909.53;;;12.54;100.00
15382;BME280;7789;51.364;12.358;2023-02-23T17:21:10;99913.78;;;12.55;100.00
15382;BME280;7789;51.364;12.358;2023-02-23T17:26:23;99914.63;;;12.55;100.00
15382;BME280;7789;51.364;12.358;2023-02-23T17:31:28;99917.25;;;12.55;100.00
15382;BME280;7789;51.364;12.358;2023-02-23T17:36:32;99925.94;;;12.56;100.00
15382;BME280;7789;51.364;12.358;2023-02-23T17:41:37;99916.84;;;12.50;100.00
15382;BME280;7789;51.364;12.358;2023-02-23T17:46:40;99910.66;;;12.51;100.00
15382;BME280;7789;51.364;12.358;2023-02-23T17:51:44;99914.41;;;12.49;100.00
15382;BME280;7789;51.364;12.358;2023-02-23T17:56:49;99911.78;;;12.49;100.00
15382;BME280;7789;51.364;12.358;2023-02-23T18:01:53;99918.66;;;12.50;100.00
15382;BME280;7789;51.364;12.358;2023-02-23T18:06:57;99913.41;;;12.50;100.00
15382;BME280;7789;51.364;12.358;2023-02-23T18:12:02;99918.97;;;12.47;100.00
15382;BME280;7789;51.364;12.358;2023-02-23T18:17:05;99921.06;;;12.43;100.00
15382;BME280;7789;51.364;12.358;2023-02-23T18:22:09;99923.00;;;12.41;100.00
15382;BME280;7789;51.364;12.358;2023-02-23T18:27:14;99908.53;;;12.37;100.00
15382;BME280;7789;51.364;12.358;2023-02-23T18:32:17;99919.59;;;12.31;100.00
15382;BME280;7789;51.364;12.358;2023-02-23T18:37:20;99914.97;;;12.25;100.00
15382;BME280;7789;51.364;12.358;2023-02-23T18:42:28;99925.06;;;12.20;100.00
15382;BME280;7789;51.364;12.358;2023-02-23T18:47:32;99929.38;;;12.12;100.00
15382;BME280;7789;51.364;12.358;2023-02-23T18:52:35;99921.84;;;11.99;100.00
15382;BME280;7789;51.364;12.358;2023-02-23T18:57:43;99922.44;;;11.93;100.00
15382;BME280;7789;51.364;12.358;2023-02-23T19:02:46;99927.13;;;11.90;100.00
15382;BME280;7789;51.364;12.358;2023-02-23T19:07:50;99931.25;;;11.92;100.00
15382;BME280;7789;51.364;12.358;2023-02-23T19:12:54;99929.91;;;11.88;100.00
15382;BME280;7789;51.364;12.358;2023-02-23T19:17:57;99928.69;;;11.83;100.00
15382;BME280;7789;51.364;12.358;2023-02-23T19:23:01;99925.81;;;11.76;100.00
15382;BME280;7789;51.364;12.358;2023-02-23T19:28:06;99928.72;;;11.73;100.00
15382;BME280;7789;51.364;12.358;2023-02-23T19:33:10;99921.28;;;11.69;100.00
15382;BME280;7789;51.364;12.358;2023-02-23T19:38:15;99919.94;;;11.65;100.00
15382;BME280;7789;51.364;12.358;2023-02-23T19:43:19;99921.72;;;11.64;100.00
15382;BME280;7789;51.364;12.358;2023-02-23T19:48:22;99915.38;;;11.67;100.00
15382;BME280;7789;51.364;12.358;2023-02-23T19:53:28;99919.38;;;11.61;100.00
15382;BME280;7789;51.364;12.358;2023-02-23T19:58:34;99927.13;;;11.63;100.00
15382;BME280;7789;51.364;12.358;2023-02-23T20:03:39;99921.19;;;11.61;100.00
15382;BME280;7789;51.364;12.358;2023-02-23T20:08:44;99930.53;;;11.54;100.00
15382;BME280;7789;51.364;12.358;2023-02-23T20:13:50;99923.94;;;11.50;100.00
15382;BME280;7789;51.364;12.358;2023-02-23T20:18:54;99928.25;;;11.41;100.00
15382;BME280;7789;51.364;12.358;2023-02-23T20:23:57;99922.75;;;11.35;100.00
15382;BME280;7789;51.364;12.358;2023-02-23T20:29:04;99917.13;;;11.30;100.00
15382;BME280;7789;51.364;12.358;2023-02-23T20:34:11;99916.72;;;11.25;100.00
15382;BME280;7789;51.364;12.358;2023-02-23T20:39:15;99913.56;;;11.21;100.00
15382;BME280;7789;51.364;12.358;2023-02-23T20:44:22;99912.59;;;11.22;100.00
15382;BME280;7789;51.364;12.358;2023-02-23T20:49:26;99909.28;;;11.20;100.00
15382;BME280;7789;51.364;12.358;2023-02-23T20:54:39;99912.19;;;11.17;100.00
15382;BME280;7789;51.364;12.358;2023-02-23T20:59:50;99909.69;;;11.16;100.00
15382;BME280;7789;51.364;12.358;2023-02-23T21:04:54;99903.91;;;11.12;100.00
15382;BME280;7789;51.364;12.358;2023-02-23T21:10:00;99903.38;;;11.09;100.00
15382;BME280;7789;51.364;12.358;2023-02-23T21:15:08;99898.16;;;11.09;100.00
15382;BME280;7789;51.364;12.358;2023-02-23T21:20:21;99900.63;;;11.10;100.00
15382;BME280;7789;51.364;12.358;2023-02-23T21:25:31;99906.81;;;11.09;100.00
15382;BME280;7789;51.364;12.358;2023-02-23T21:30:38;99908.63;;;11.09;100.00
15382;BME280;7789;51.364;12.358;2023-02-23T21:35:42;99904.19;;;11.09;100.00
15382;BME280;7789;51.364;12.358;2023-02-23T21:40:46;99904.59;;;11.05;100.00
15382;BME280;7789;51.364;12.358;2023-02-23T21:45:51;99902.16;;;11.03;100.00
15382;BME280;7789;51.364;12.358;2023-02-23T21:51:01;99909.16;;;11.03;100.00
15382;BME280;7789;51.364;12.358;2023-02-23T21:56:05;99899.94;;;10.99;100.00
15382;BME280;7789;51.364;12.358;2023-02-23T22:01:16;99899.25;;;10.97;100.00
15382;BME280;7789;51.364;12.358;2023-02-23T22:06:22;99900.63;;;10.92;100.00
15382;BME280;7789;51.364;12.358;2023-02-23T22:11:26;99906.97;;;10.89;100.00
15382;BME280;7789;51.364;12.358;2023-02-23T22:16:33;99899.97;;;10.90;100.00
15382;BME280;7789;51.364;12.358;2023-02-23T22:21:38;99896.66;;;10.88;100.00
15382;BME280;7789;51.364;12.358;2023-02-23T22:26:45;99893.50;;;10.84;100.00
15382;BME280;7789;51.364;12.358;2023-02-23T22:31:52;99888.53;;;10.81;100.00
15382;BME280;7789;51.364;12.358;2023-02-23T22:36:56;99883.03;;;10.75;100.00
15382;BME280;7789;51.364;12.358;2023-02-23T22:41:59;99882.63;;;10.70;100.00
15382;BME280;7789;51.364;12.358;2023-02-23T22:47:11;99868.88;;;10.68;100.00
15382;BME280;7789;51.364;12.358;2023-02-23T22:52:14;99865.72;;;10.64;100.00
15382;BME280;7789;51.364;12.358;2023-02-23T22:57:18;99860.75;;;10.61;100.00
15382;BME280;7789;51.364;12.358;2023-02-23T23:02:22;99863.50;;;10.60;100.00
15382;BME280;7789;51.364;12.358;2023-02-23T23:07:26;99862.13;;;10.56;100.00
15382;BME280;7789;51.364;12.358;2023-02-23T23:12:30;99845.78;;;10.54;100.00
15382;BME280;7789;51.364;12.358;2023-02-23T23:17:36;99847.53;;;10.53;100.00
15382;BME280;7789;51.364;12.358;2023-02-23T23:22:40;99851.97;;;10.53;100.00
15382;BME280;7789;51.364;12.358;2023-02-23T23:27:43;99850.31;;;10.52;100.00
15382;BME280;7789;51.364;12.358;2023-02-23T23:32:48;99851.41;;;10.49;100.00
15382;BME280;7789;51.364;12.358;2023-02-23T23:37:51;99842.03;;;10.47;100.00
15382;BME280;7789;51.364;12.358;2023-02-23T23:42:55;99843.28;;;10.43;100.00
15382;BME280;7789;51.364;12.358;2023-02-23T23:47:59;99840.66;;;10.43;100.00
15382;BME280;7789;51.364;12.358;2023-02-23T23:53:10;99834.75;;;10.41;100.00
15382;BME280;7789;51.364;12.358;2023-02-23T23:58:15;99843.69;;;10.38;100.00
